sensor_id;sensor_type;location;lat;lon;timestamp;P1;durP1;ratioP1;P2;durP2;ratioP2
78224;SDS011;67498;53.650;10.090;2023-04-28T00:00:26;4.93;;;1.60;;
78224;SDS011;67498;53.650;10.090;2023-04-28T00:02:51;7.03;;;2.27;;
78224;SDS011;67498;53.650;10.090;2023-04-28T00:05:17;8.45;;;2.78;;
78224;SDS011;67498;53.650;10.090;2023-04-28T00:07:42;8.17;;;2.60;;
78224;SDS011;67498;53.650;10.090;2023-04-28T00:10:08;5.90;;;2.30;;
78224;SDS011;67498;53.650;10.090;2023-04-28T00:12:33;7.07;;;2.33;;
78224;SDS011;67498;53.650;10.090;2023-04-28T00:14:58;7.97;;;2.40;;
78224;SDS011;67498;53.650;10.090;2023-04-28T00:17:23;5.50;;;1.60;;
78224;SDS011;67498;53.650;10.090;2023-04-28T00:19:49;10.77;;;2.20;;
78224;SDS011;67498;53.650;10.090;2023-04-28T00:22:14;5.37;;;1.83;;
78224;SDS011;67498;53.650;10.090;2023-04-28T00:24:39;5.13;;;2.30;;
78224;SDS011;67498;53.650;10.090;2023-04-28T00:27:05;6.03;;;2.40;;
78224;SDS011;67498;53.650;10.090;2023-04-28T00:29:31;6.57;;;2.23;;
78224;SDS011;67498;53.650;10.090;2023-04-28T00:31:56;5.53;;;2.30;;
78224;SDS011;67498;53.650;10.090;2023-04-28T00:34:21;5.27;;;2.27;;
78224;SDS011;67498;53.650;10.090;2023-04-28T00:36:46;14.15;;;2.97;;
78224;SDS011;67498;53.650;10.090;2023-04-28T00:39:12;4.50;;;1.67;;
78224;SDS011;67498;53.650;10.090;2023-04-28T00:41:37;6.93;;;2.47;;
78224;SDS011;67498;53.650;10.090;2023-04-28T00:44:02;5.23;;;1.90;;
78224;SDS011;67498;53.650;10.090;2023-04-28T00:46:28;5.70;;;1.80;;
78224;SDS011;67498;53.650;10.090;2023-04-28T00:48:54;4.43;;;1.33;;
78224;SDS011;67498;53.650;10.090;2023-04-28T00:51:19;4.90;;;1.95;;
78224;SDS011;67498;53.650;10.090;2023-04-28T00:53:45;7.63;;;2.53;;
78224;SDS011;67498;53.650;10.090;2023-04-28T00:56:10;6.63;;;2.07;;
78224;SDS011;67498;53.650;10.090;2023-04-28T00:58:36;5.00;;;1.63;;
78224;SDS011;67498;53.650;10.090;2023-04-28T01:01:05;7.63;;;2.55;;
78224;SDS011;67498;53.650;10.090;2023-04-28T01:03:34;4.60;;;1.53;;
78224;SDS011;67498;53.650;10.090;2023-04-28T01:06:01;4.38;;;1.70;;
78224;SDS011;67498;53.650;10.090;2023-04-28T01:08:28;6.82;;;1.50;;
78224;SDS011;67498;53.650;10.090;2023-04-28T01:10:54;4.88;;;2.17;;
78224;SDS011;67498;53.650;10.090;2023-04-28T01:13:19;4.20;;;1.60;;
78224;SDS011;67498;53.650;10.090;2023-04-28T01:15:44;17.00;;;2.20;;
78224;SDS011;67498;53.650;10.090;2023-04-28T01:18:10;7.03;;;2.23;;
78224;SDS011;67498;53.650;10.090;2023-04-28T01:20:35;4.18;;;1.00;;
78224;SDS011;67498;53.650;10.090;2023-04-28T01:23:00;7.80;;;1.77;;
78224;SDS011;67498;53.650;10.090;2023-04-28T01:25:25;4.87;;;1.90;;
78224;SDS011;67498;53.650;10.090;2023-04-28T01:27:51;6.13;;;2.03;;
78224;SDS011;67498;53.650;10.090;2023-04-28T01:30:16;6.25;;;2.22;;
78224;SDS011;67498;53.650;10.090;2023-04-28T01:32:41;16.87;;;2.33;;
78224;SDS011;67498;53.650;10.090;2023-04-28T01:35:07;7.80;;;2.63;;
78224;SDS011;67498;53.650;10.090;2023-04-28T01:37:32;5.53;;;2.07;;
78224;SDS011;67498;53.650;10.090;2023-04-28T01:39:57;3.92;;;1.17;;
78224;SDS011;67498;53.650;10.090;2023-04-28T01:42:22;5.23;;;1.57;;
78224;SDS011;67498;53.650;10.090;2023-04-28T01:44:47;5.00;;;1.63;;
78224;SDS011;67498;53.650;10.090;2023-04-28T01:47:13;5.17;;;1.87;;
78224;SDS011;67498;53.650;10.090;2023-04-28T01:49:38;5.10;;;1.20;;
78224;SDS011;67498;53.650;10.090;2023-04-28T01:52:03;6.85;;;2.00;;
78224;SDS011;67498;53.650;10.090;2023-04-28T01:54:28;6.53;;;1.83;;
78224;SDS011;67498;53.650;10.090;2023-04-28T01:56:53;7.50;;;2.07;;
78224;SDS011;67498;53.650;10.090;2023-04-28T01:59:18;3.83;;;1.43;;
78224;SDS011;67498;53.650;10.090;2023-04-28T02:01:44;4.00;;;1.50;;
78224;SDS011;67498;53.650;10.090;2023-04-28T02:04:09;3.57;;;1.30;;
78224;SDS011;67498;53.650;10.090;2023-04-28T02:06:34;5.10;;;1.93;;
78224;SDS011;67498;53.650;10.090;2023-04-28T02:09:00;4.03;;;1.43;;
78224;SDS011;67498;53.650;10.090;2023-04-28T02:11:25;4.50;;;1.90;;
78224;SDS011;67498;53.650;10.090;2023-04-28T02:13:50;5.40;;;1.50;;
78224;SDS011;67498;53.650;10.090;2023-04-28T02:16:15;7.43;;;2.47;;
78224;SDS011;67498;53.650;10.090;2023-04-28T02:18:40;5.00;;;1.50;;
78224;SDS011;67498;53.650;10.090;2023-04-28T02:21:09;4.03;;;1.35;;
78224;SDS011;67498;53.650;10.090;2023-04-28T02:23:35;6.18;;;1.75;;
78224;SDS011;67498;53.650;10.090;2023-04-28T02:26:01;5.40;;;2.00;;
78224;SDS011;67498;53.650;10.090;2023-04-28T02:28:26;8.33;;;2.73;;
78224;SDS011;67498;53.650;10.090;2023-04-28T02:30:51;7.63;;;2.17;;
78224;SDS011;67498;53.650;10.090;2023-04-28T02:33:16;6.13;;;1.83;;
78224;SDS011;67498;53.650;10.090;2023-04-28T02:35:42;5.80;;;1.90;;
78224;SDS011;67498;53.650;10.090;2023-04-28T02:38:07;5.00;;;1.73;;
78224;SDS011;67498;53.650;10.090;2023-04-28T02:40:32;5.87;;;2.43;;
78224;SDS011;67498;53.650;10.090;2023-04-28T02:42:57;5.20;;;2.13;;
78224;SDS011;67498;53.650;10.090;2023-04-28T02:45:22;5.18;;;1.92;;
78224;SDS011;67498;53.650;10.090;2023-04-28T02:47:48;5.47;;;2.33;;
78224;SDS011;67498;53.650;10.090;2023-04-28T02:50:13;4.75;;;1.73;;
78224;SDS011;67498;53.650;10.090;2023-04-28T02:52:38;5.93;;;2.30;;
78224;SDS011;67498;53.650;10.090;2023-04-28T02:55:03;4.87;;;1.63;;
78224;SDS011;67498;53.650;10.090;2023-04-28T02:57:29;5.00;;;2.00;;
78224;SDS011;67498;53.650;10.090;2023-04-28T02:59:54;7.50;;;1.90;;
78224;SDS011;67498;53.650;10.090;2023-04-28T03:02:19;5.53;;;1.83;;
78224;SDS011;67498;53.650;10.090;2023-04-28T03:04:46;4.87;;;1.83;;
78224;SDS011;67498;53.650;10.090;2023-04-28T03:07:12;5.53;;;1.07;;
78224;SDS011;67498;53.650;10.090;2023-04-28T03:09:37;4.20;;;1.27;;
78224;SDS011;67498;53.650;10.090;2023-04-28T03:12:02;7.60;;;1.53;;
78224;SDS011;67498;53.650;10.090;2023-04-28T03:14:27;3.00;;;1.17;;
78224;SDS011;67498;53.650;10.090;2023-04-28T03:16:52;5.00;;;1.33;;
78224;SDS011;67498;53.650;10.090;2023-04-28T03:19:17;4.60;;;1.77;;
78224;SDS011;67498;53.650;10.090;2023-04-28T03:21:43;7.20;;;1.27;;
78224;SDS011;67498;53.650;10.090;2023-04-28T03:24:08;4.53;;;1.27;;
78224;SDS011;67498;53.650;10.090;2023-04-28T03:26:33;3.33;;;1.13;;
78224;SDS011;67498;53.650;10.090;2023-04-28T03:28:58;4.07;;;1.40;;
78224;SDS011;67498;53.650;10.090;2023-04-28T03:31:24;6.33;;;2.50;;
78224;SDS011;67498;53.650;10.090;2023-04-28T03:33:49;4.60;;;1.85;;
78224;SDS011;67498;53.650;10.090;2023-04-28T03:36:14;6.10;;;2.53;;
78224;SDS011;67498;53.650;10.090;2023-04-28T03:38:40;5.50;;;1.63;;
78224;SDS011;67498;53.650;10.090;2023-04-28T03:41:05;4.53;;;1.67;;
78224;SDS011;67498;53.650;10.090;2023-04-28T03:43:30;5.57;;;1.40;;
78224;SDS011;67498;53.650;10.090;2023-04-28T03:45:57;5.30;;;2.10;;
78224;SDS011;67498;53.650;10.090;2023-04-28T03:48:22;7.07;;;2.30;;
78224;SDS011;67498;53.650;10.090;2023-04-28T03:50:47;6.93;;;1.88;;
78224;SDS011;67498;53.650;10.090;2023-04-28T03:53:12;4.93;;;1.95;;
78224;SDS011;67498;53.650;10.090;2023-04-28T03:55:37;6.03;;;1.92;;
78224;SDS011;67498;53.650;10.090;2023-04-28T03:58:02;4.60;;;1.63;;
78224;SDS011;67498;53.650;10.090;2023-04-28T04:00:28;4.13;;;1.85;;
78224;SDS011;67498;53.650;10.090;2023-04-28T04:02:53;5.03;;;2.03;;
78224;SDS011;67498;53.650;10.090;2023-04-28T04:05:18;6.23;;;1.27;;
78224;SDS011;67498;53.650;10.090;2023-04-28T04:07:43;5.83;;;1.80;;
78224;SDS011;67498;53.650;10.090;2023-04-28T04:10:09;4.30;;;1.63;;
78224;SDS011;67498;53.650;10.090;2023-04-28T04:12:34;3.75;;;1.35;;
78224;SDS011;67498;53.650;10.090;2023-04-28T04:14:59;3.70;;;1.05;;
78224;SDS011;67498;53.650;10.090;2023-04-28T04:17:24;5.40;;;1.10;;
78224;SDS011;67498;53.650;10.090;2023-04-28T04:19:50;5.70;;;1.40;;
78224;SDS011;67498;53.650;10.090;2023-04-28T04:22:15;5.25;;;1.30;;
78224;SDS011;67498;53.650;10.090;2023-04-28T04:24:40;4.10;;;1.50;;
78224;SDS011;67498;53.650;10.090;2023-04-28T04:27:05;4.33;;;1.33;;
78224;SDS011;67498;53.650;10.090;2023-04-28T04:29:31;5.20;;;1.87;;
78224;SDS011;67498;53.650;10.090;2023-04-28T04:31:56;6.23;;;1.83;;
78224;SDS011;67498;53.650;10.090;2023-04-28T04:34:21;4.90;;;1.57;;
78224;SDS011;67498;53.650;10.090;2023-04-28T04:36:46;2.17;;;0.60;;
78224;SDS011;67498;53.650;10.090;2023-04-28T04:39:11;4.30;;;1.67;;
78224;SDS011;67498;53.650;10.090;2023-04-28T04:41:37;4.80;;;1.20;;
78224;SDS011;67498;53.650;10.090;2023-04-28T04:44:02;5.10;;;2.07;;
78224;SDS011;67498;53.650;10.090;2023-04-28T04:46:28;3.75;;;1.42;;
78224;SDS011;67498;53.650;10.090;2023-04-28T04:48:53;4.20;;;1.23;;
78224;SDS011;67498;53.650;10.090;2023-04-28T04:51:18;4.17;;;1.87;;
78224;SDS011;67498;53.650;10.090;2023-04-28T04:53:43;8.40;;;1.80;;
78224;SDS011;67498;53.650;10.090;2023-04-28T04:56:09;7.33;;;1.30;;
78224;SDS011;67498;53.650;10.090;2023-04-28T04:58:34;4.23;;;1.43;;
78224;SDS011;67498;53.650;10.090;2023-04-28T05:00:59;2.10;;;0.60;;
78224;SDS011;67498;53.650;10.090;2023-04-28T05:03:25;4.60;;;1.40;;
78224;SDS011;67498;53.650;10.090;2023-04-28T05:05:50;5.00;;;1.67;;
78224;SDS011;67498;53.650;10.090;2023-04-28T05:08:15;5.43;;;1.40;;
78224;SDS011;67498;53.650;10.090;2023-04-28T05:10:40;3.50;;;1.10;;
78224;SDS011;67498;53.650;10.090;2023-04-28T05:13:05;4.03;;;1.27;;
78224;SDS011;67498;53.650;10.090;2023-04-28T05:15:31;3.37;;;1.03;;
78224;SDS011;67498;53.650;10.090;2023-04-28T05:17:56;4.77;;;1.67;;
78224;SDS011;67498;53.650;10.090;2023-04-28T05:20:22;3.00;;;0.85;;
78224;SDS011;67498;53.650;10.090;2023-04-28T05:22:47;4.20;;;1.37;;
78224;SDS011;67498;53.650;10.090;2023-04-28T05:25:12;3.40;;;1.08;;
78224;SDS011;67498;53.650;10.090;2023-04-28T05:27:37;3.60;;;1.23;;
78224;SDS011;67498;53.650;10.090;2023-04-28T05:30:06;4.33;;;1.03;;
78224;SDS011;67498;53.650;10.090;2023-04-28T05:32:31;2.75;;;0.65;;
78224;SDS011;67498;53.650;10.090;2023-04-28T05:34:56;4.83;;;1.43;;
78224;SDS011;67498;53.650;10.090;2023-04-28T05:37:21;3.53;;;1.15;;
78224;SDS011;67498;53.650;10.090;2023-04-28T05:39:47;3.30;;;1.10;;
78224;SDS011;67498;53.650;10.090;2023-04-28T05:42:12;5.22;;;1.05;;
78224;SDS011;67498;53.650;10.090;2023-04-28T05:44:37;3.83;;;0.88;;
78224;SDS011;67498;53.650;10.090;2023-04-28T05:47:02;3.47;;;0.80;;
78224;SDS011;67498;53.650;10.090;2023-04-28T05:49:27;7.67;;;1.30;;
78224;SDS011;67498;53.650;10.090;2023-04-28T05:51:52;7.83;;;1.83;;
78224;SDS011;67498;53.650;10.090;2023-04-28T05:54:18;3.77;;;0.93;;
78224;SDS011;67498;53.650;10.090;2023-04-28T05:56:43;2.47;;;0.60;;
78224;SDS011;67498;53.650;10.090;2023-04-28T05:59:08;4.03;;;1.23;;
78224;SDS011;67498;53.650;10.090;2023-04-28T06:01:34;4.00;;;1.23;;
78224;SDS011;67498;53.650;10.090;2023-04-28T06:03:59;4.05;;;1.45;;
78224;SDS011;67498;53.650;10.090;2023-04-28T06:06:24;3.90;;;0.90;;
78224;SDS011;67498;53.650;10.090;2023-04-28T06:08:50;3.73;;;1.23;;
78224;SDS011;67498;53.650;10.090;2023-04-28T06:11:15;2.43;;;0.70;;
78224;SDS011;67498;53.650;10.090;2023-04-28T06:13:40;1.97;;;0.43;;
78224;SDS011;67498;53.650;10.090;2023-04-28T06:16:06;2.57;;;0.80;;
78224;SDS011;67498;53.650;10.090;2023-04-28T06:18:31;3.47;;;0.88;;
78224;SDS011;67498;53.650;10.090;2023-04-28T06:20:56;3.93;;;1.00;;
78224;SDS011;67498;53.650;10.090;2023-04-28T06:23:22;2.20;;;0.33;;
78224;SDS011;67498;53.650;10.090;2023-04-28T06:25:47;5.53;;;0.70;;
78224;SDS011;67498;53.650;10.090;2023-04-28T06:28:12;3.17;;;0.70;;
78224;SDS011;67498;53.650;10.090;2023-04-28T06:30:38;2.40;;;0.55;;
78224;SDS011;67498;53.650;10.090;2023-04-28T06:33:04;2.50;;;0.60;;
78224;SDS011;67498;53.650;10.090;2023-04-28T06:35:29;1.83;;;0.40;;
78224;SDS011;67498;53.650;10.090;2023-04-28T06:37:54;3.23;;;0.57;;
78224;SDS011;67498;53.650;10.090;2023-04-28T06:40:19;9.13;;;0.97;;
78224;SDS011;67498;53.650;10.090;2023-04-28T06:42:45;4.10;;;1.03;;
78224;SDS011;67498;53.650;10.090;2023-04-28T06:45:10;3.37;;;0.70;;
78224;SDS011;67498;53.650;10.090;2023-04-28T06:47:35;6.80;;;0.90;;
78224;SDS011;67498;53.650;10.090;2023-04-28T06:50:01;3.50;;;0.80;;
78224;SDS011;67498;53.650;10.090;2023-04-28T06:52:26;3.90;;;0.90;;
78224;SDS011;67498;53.650;10.090;2023-04-28T06:54:53;3.10;;;0.77;;
78224;SDS011;67498;53.650;10.090;2023-04-28T06:57:18;4.33;;;0.87;;
78224;SDS011;67498;53.650;10.090;2023-04-28T06:59:45;4.57;;;1.15;;
78224;SDS011;67498;53.650;10.090;2023-04-28T07:02:10;4.03;;;0.83;;
78224;SDS011;67498;53.650;10.090;2023-04-28T07:04:35;7.53;;;1.17;;
78224;SDS011;67498;53.650;10.090;2023-04-28T07:07:00;4.23;;;0.80;;
78224;SDS011;67498;53.650;10.090;2023-04-28T07:09:26;4.53;;;0.90;;
78224;SDS011;67498;53.650;10.090;2023-04-28T07:11:51;3.27;;;0.63;;
78224;SDS011;67498;53.650;10.090;2023-04-28T07:14:16;4.80;;;1.27;;
78224;SDS011;67498;53.650;10.090;2023-04-28T07:16:41;3.80;;;0.93;;
78224;SDS011;67498;53.650;10.090;2023-04-28T07:19:07;2.43;;;0.83;;
78224;SDS011;67498;53.650;10.090;2023-04-28T07:21:32;3.67;;;0.90;;
78224;SDS011;67498;53.650;10.090;2023-04-28T07:23:58;2.40;;;0.65;;
78224;SDS011;67498;53.650;10.090;2023-04-28T07:26:23;4.43;;;1.30;;
78224;SDS011;67498;53.650;10.090;2023-04-28T07:28:48;3.70;;;0.90;;
78224;SDS011;67498;53.650;10.090;2023-04-28T07:31:13;5.53;;;1.25;;
78224;SDS011;67498;53.650;10.090;2023-04-28T07:33:39;6.20;;;1.00;;
78224;SDS011;67498;53.650;10.090;2023-04-28T07:36:04;4.67;;;0.70;;
78224;SDS011;67498;53.650;10.090;2023-04-28T07:38:29;3.30;;;0.87;;
78224;SDS011;67498;53.650;10.090;2023-04-28T07:40:55;5.90;;;0.67;;
78224;SDS011;67498;53.650;10.090;2023-04-28T07:43:20;2.30;;;0.50;;
78224;SDS011;67498;53.650;10.090;2023-04-28T07:45:45;1.80;;;0.60;;
78224;SDS011;67498;53.650;10.090;2023-04-28T07:48:12;4.70;;;0.93;;
78224;SDS011;67498;53.650;10.090;2023-04-28T07:50:38;4.20;;;1.10;;
78224;SDS011;67498;53.650;10.090;2023-04-28T07:53:03;4.00;;;1.00;;
78224;SDS011;67498;53.650;10.090;2023-04-28T07:55:28;3.45;;;0.70;;
78224;SDS011;67498;53.650;10.090;2023-04-28T07:57:54;3.33;;;0.70;;
78224;SDS011;67498;53.650;10.090;2023-04-28T08:00:19;3.37;;;0.70;;
78224;SDS011;67498;53.650;10.090;2023-04-28T08:02:45;6.35;;;0.90;;
78224;SDS011;67498;53.650;10.090;2023-04-28T08:05:10;2.43;;;0.57;;
78224;SDS011;67498;53.650;10.090;2023-04-28T08:07:35;4.67;;;0.70;;
78224;SDS011;67498;53.650;10.090;2023-04-28T08:10:01;6.87;;;0.83;;
78224;SDS011;67498;53.650;10.090;2023-04-28T08:12:27;4.70;;;1.00;;
78224;SDS011;67498;53.650;10.090;2023-04-28T08:14:52;3.00;;;0.80;;
78224;SDS011;67498;53.650;10.090;2023-04-28T08:17:17;3.53;;;0.93;;
78224;SDS011;67498;53.650;10.090;2023-04-28T08:19:42;6.20;;;0.80;;
78224;SDS011;67498;53.650;10.090;2023-04-28T08:22:10;4.40;;;0.80;;
78224;SDS011;67498;53.650;10.090;2023-04-28T08:24:35;5.87;;;0.90;;
78224;SDS011;67498;53.650;10.090;2023-04-28T08:27:00;3.00;;;0.80;;
78224;SDS011;67498;53.650;10.090;2023-04-28T08:29:27;15.50;;;0.80;;
78224;SDS011;67498;53.650;10.090;2023-04-28T08:31:52;5.53;;;0.90;;
78224;SDS011;67498;53.650;10.090;2023-04-28T08:34:17;3.40;;;0.75;;
78224;SDS011;67498;53.650;10.090;2023-04-28T08:36:43;5.93;;;0.93;;
78224;SDS011;67498;53.650;10.090;2023-04-28T08:39:08;4.13;;;0.73;;
78224;SDS011;67498;53.650;10.090;2023-04-28T08:41:33;4.35;;;0.80;;
78224;SDS011;67498;53.650;10.090;2023-04-28T08:44:00;3.92;;;0.90;;
78224;SDS011;67498;53.650;10.090;2023-04-28T08:46:26;6.50;;;0.93;;
78224;SDS011;67498;53.650;10.090;2023-04-28T08:48:51;4.38;;;1.00;;
78224;SDS011;67498;53.650;10.090;2023-04-28T08:51:27;4.70;;;1.10;;
78224;SDS011;67498;53.650;10.090;2023-04-28T08:53:55;4.38;;;1.30;;
78224;SDS011;67498;53.650;10.090;2023-04-28T08:56:23;2.83;;;0.80;;
78224;SDS011;67498;53.650;10.090;2023-04-28T08:58:49;3.33;;;0.85;;
78224;SDS011;67498;53.650;10.090;2023-04-28T09:01:14;3.30;;;0.80;;
78224;SDS011;67498;53.650;10.090;2023-04-28T09:03:39;3.37;;;1.10;;
78224;SDS011;67498;53.650;10.090;2023-04-28T09:06:05;4.03;;;0.97;;
78224;SDS011;67498;53.650;10.090;2023-04-28T09:08:30;5.50;;;1.10;;
78224;SDS011;67498;53.650;10.090;2023-04-28T09:11:08;3.67;;;1.33;;
78224;SDS011;67498;53.650;10.090;2023-04-28T09:13:33;5.90;;;1.27;;
78224;SDS011;67498;53.650;10.090;2023-04-28T09:15:59;5.17;;;1.27;;
78224;SDS011;67498;53.650;10.090;2023-04-28T09:18:24;4.65;;;1.15;;
78224;SDS011;67498;53.650;10.090;2023-04-28T09:20:49;3.00;;;0.70;;
78224;SDS011;67498;53.650;10.090;2023-04-28T09:23:19;4.33;;;0.90;;
78224;SDS011;67498;53.650;10.090;2023-04-28T09:28:39;4.35;;;1.10;;
78224;SDS011;67498;53.650;10.090;2023-04-28T09:31:04;4.73;;;1.17;;
78224;SDS011;67498;53.650;10.090;2023-04-28T09:33:29;6.60;;;1.33;;
78224;SDS011;67498;53.650;10.090;2023-04-28T09:35:55;4.10;;;1.03;;
78224;SDS011;67498;53.650;10.090;2023-04-28T09:38:20;3.83;;;1.07;;
78224;SDS011;67498;53.650;10.090;2023-04-28T09:43:24;8.40;;;1.40;;
78224;SDS011;67498;53.650;10.090;2023-04-28T09:45:50;6.22;;;0.90;;
78224;SDS011;67498;53.650;10.090;2023-04-28T09:48:16;11.43;;;1.00;;
78224;SDS011;67498;53.650;10.090;2023-04-28T09:50:42;8.32;;;1.23;;
78224;SDS011;67498;53.650;10.090;2023-04-28T09:53:08;4.03;;;1.10;;
78224;SDS011;67498;53.650;10.090;2023-04-28T09:55:35;3.50;;;1.10;;
78224;SDS011;67498;53.650;10.090;2023-04-28T09:58:04;3.85;;;1.00;;
78224;SDS011;67498;53.650;10.090;2023-04-28T10:00:32;4.25;;;1.10;;
78224;SDS011;67498;53.650;10.090;2023-04-28T10:02:57;3.57;;;1.10;;
78224;SDS011;67498;53.650;10.090;2023-04-28T10:05:23;4.85;;;1.10;;
78224;SDS011;67498;53.650;10.090;2023-04-28T10:07:49;5.07;;;1.43;;
78224;SDS011;67498;53.650;10.090;2023-04-28T10:10:15;4.07;;;1.20;;
78224;SDS011;67498;53.650;10.090;2023-04-28T10:12:40;3.80;;;0.85;;
78224;SDS011;67498;53.650;10.090;2023-04-28T10:15:06;3.87;;;1.23;;
78224;SDS011;67498;53.650;10.090;2023-04-28T10:17:33;2.50;;;0.68;;
78224;SDS011;67498;53.650;10.090;2023-04-28T10:19:58;5.50;;;1.80;;
78224;SDS011;67498;53.650;10.090;2023-04-28T10:27:17;3.67;;;1.07;;
78224;SDS011;67498;53.650;10.090;2023-04-28T10:29:43;4.13;;;1.10;;
78224;SDS011;67498;53.650;10.090;2023-04-28T10:34:40;4.30;;;0.80;;
78224;SDS011;67498;53.650;10.090;2023-04-28T10:37:05;4.40;;;1.33;;
78224;SDS011;67498;53.650;10.090;2023-04-28T10:39:30;4.27;;;1.10;;
78224;SDS011;67498;53.650;10.090;2023-04-28T10:41:55;5.30;;;1.30;;
78224;SDS011;67498;53.650;10.090;2023-04-28T10:47:25;4.97;;;1.50;;
78224;SDS011;67498;53.650;10.090;2023-04-28T10:57:42;7.95;;;1.50;;
78224;SDS011;67498;53.650;10.090;2023-04-28T11:00:26;3.10;;;0.90;;
78224;SDS011;67498;53.650;10.090;2023-04-28T11:02:52;6.83;;;1.27;;
78224;SDS011;67498;53.650;10.090;2023-04-28T11:05:18;3.05;;;0.88;;
78224;SDS011;67498;53.650;10.090;2023-04-28T11:11:10;4.65;;;1.20;;
78224;SDS011;67498;53.650;10.090;2023-04-28T11:13:26;6.03;;;1.70;;
78224;SDS011;67498;53.650;10.090;2023-04-28T11:16:04;4.75;;;1.10;;
78224;SDS011;67498;53.650;10.090;2023-04-28T11:18:31;6.33;;;1.27;;
78224;SDS011;67498;53.650;10.090;2023-04-28T11:21:00;5.18;;;1.20;;
78224;SDS011;67498;53.650;10.090;2023-04-28T11:23:26;5.37;;;1.63;;
78224;SDS011;67498;53.650;10.090;2023-04-28T11:25:53;6.20;;;1.50;;
78224;SDS011;67498;53.650;10.090;2023-04-28T11:28:19;11.38;;;1.67;;
78224;SDS011;67498;53.650;10.090;2023-04-28T11:30:45;6.30;;;1.53;;
78224;SDS011;67498;53.650;10.090;2023-04-28T11:33:10;7.00;;;1.53;;
78224;SDS011;67498;53.650;10.090;2023-04-28T11:35:41;4.72;;;1.23;;
78224;SDS011;67498;53.650;10.090;2023-04-28T11:38:07;4.63;;;1.40;;
78224;SDS011;67498;53.650;10.090;2023-04-28T11:40:32;5.03;;;1.30;;
78224;SDS011;67498;53.650;10.090;2023-04-28T11:42:57;7.07;;;1.43;;
78224;SDS011;67498;53.650;10.090;2023-04-28T11:45:27;4.80;;;1.20;;
78224;SDS011;67498;53.650;10.090;2023-04-28T11:47:53;4.90;;;1.10;;
78224;SDS011;67498;53.650;10.090;2023-04-28T11:50:34;5.53;;;1.52;;
78224;SDS011;67498;53.650;10.090;2023-04-28T11:52:59;4.03;;;1.27;;
78224;SDS011;67498;53.650;10.090;2023-04-28T11:55:24;7.27;;;1.53;;
78224;SDS011;67498;53.650;10.090;2023-04-28T12:00:36;4.07;;;1.42;;
78224;SDS011;67498;53.650;10.090;2023-04-28T12:03:07;4.82;;;1.63;;
78224;SDS011;67498;53.650;10.090;2023-04-28T12:05:32;5.73;;;1.63;;
78224;SDS011;67498;53.650;10.090;2023-04-28T12:07:59;5.93;;;1.63;;
78224;SDS011;67498;53.650;10.090;2023-04-28T12:10:25;4.38;;;1.30;;
78224;SDS011;67498;53.650;10.090;2023-04-28T12:12:50;4.60;;;1.47;;
78224;SDS011;67498;53.650;10.090;2023-04-28T12:15:15;4.00;;;1.33;;
78224;SDS011;67498;53.650;10.090;2023-04-28T12:17:41;7.10;;;1.60;;
78224;SDS011;67498;53.650;10.090;2023-04-28T12:20:07;8.03;;;1.73;;
78224;SDS011;67498;53.650;10.090;2023-04-28T12:22:45;7.05;;;1.63;;
78224;SDS011;67498;53.650;10.090;2023-04-28T12:25:12;11.95;;;1.95;;
78224;SDS011;67498;53.650;10.090;2023-04-28T12:27:37;11.80;;;1.90;;
78224;SDS011;67498;53.650;10.090;2023-04-28T12:30:25;5.90;;;1.50;;
78224;SDS011;67498;53.650;10.090;2023-04-28T12:32:50;4.33;;;1.20;;
78224;SDS011;67498;53.650;10.090;2023-04-28T12:35:15;4.68;;;1.50;;
78224;SDS011;67498;53.650;10.090;2023-04-28T12:37:41;6.70;;;1.30;;
78224;SDS011;67498;53.650;10.090;2023-04-28T12:40:06;5.23;;;1.70;;
78224;SDS011;67498;53.650;10.090;2023-04-28T12:42:32;3.67;;;1.17;;
78224;SDS011;67498;53.650;10.090;2023-04-28T12:44:57;7.87;;;1.47;;
78224;SDS011;67498;53.650;10.090;2023-04-28T12:47:22;4.87;;;1.57;;
78224;SDS011;67498;53.650;10.090;2023-04-28T12:49:47;7.20;;;1.87;;
78224;SDS011;67498;53.650;10.090;2023-04-28T12:52:14;4.25;;;1.50;;
78224;SDS011;67498;53.650;10.090;2023-04-28T12:54:40;7.10;;;1.53;;
78224;SDS011;67498;53.650;10.090;2023-04-28T12:57:10;5.65;;;1.95;;
78224;SDS011;67498;53.650;10.090;2023-04-28T12:59:37;6.18;;;1.58;;
78224;SDS011;67498;53.650;10.090;2023-04-28T13:02:02;4.93;;;1.60;;
78224;SDS011;67498;53.650;10.090;2023-04-28T13:04:27;5.37;;;1.60;;
78224;SDS011;67498;53.650;10.090;2023-04-28T13:06:52;5.83;;;1.57;;
78224;SDS011;67498;53.650;10.090;2023-04-28T13:09:18;6.87;;;1.60;;
78224;SDS011;67498;53.650;10.090;2023-04-28T13:11:43;6.30;;;1.83;;
78224;SDS011;67498;53.650;10.090;2023-04-28T13:14:08;4.53;;;1.27;;
78224;SDS011;67498;53.650;10.090;2023-04-28T13:16:34;9.32;;;1.92;;
78224;SDS011;67498;53.650;10.090;2023-04-28T13:19:00;6.20;;;1.60;;
78224;SDS011;67498;53.650;10.090;2023-04-28T13:21:25;7.38;;;1.77;;
78224;SDS011;67498;53.650;10.090;2023-04-28T13:23:52;6.75;;;1.77;;
78224;SDS011;67498;53.650;10.090;2023-04-28T13:26:18;5.23;;;1.40;;
78224;SDS011;67498;53.650;10.090;2023-04-28T13:28:44;4.90;;;1.67;;
78224;SDS011;67498;53.650;10.090;2023-04-28T13:31:09;5.97;;;1.50;;
78224;SDS011;67498;53.650;10.090;2023-04-28T13:33:34;4.53;;;1.53;;
78224;SDS011;67498;53.650;10.090;2023-04-28T13:36:00;9.00;;;1.83;;
78224;SDS011;67498;53.650;10.090;2023-04-28T13:38:25;6.40;;;1.50;;
78224;SDS011;67498;53.650;10.090;2023-04-28T13:40:51;8.00;;;2.10;;
78224;SDS011;67498;53.650;10.090;2023-04-28T13:43:16;10.20;;;2.08;;
78224;SDS011;67498;53.650;10.090;2023-04-28T13:45:41;8.60;;;1.77;;
78224;SDS011;67498;53.650;10.090;2023-04-28T13:48:06;5.80;;;1.47;;
78224;SDS011;67498;53.650;10.090;2023-04-28T13:50:32;5.13;;;1.50;;
78224;SDS011;67498;53.650;10.090;2023-04-28T13:52:57;4.97;;;1.50;;
78224;SDS011;67498;53.650;10.090;2023-04-28T13:55:23;6.40;;;1.33;;
78224;SDS011;67498;53.650;10.090;2023-04-28T13:57:52;8.15;;;1.48;;
78224;SDS011;67498;53.650;10.090;2023-04-28T14:00:17;6.22;;;1.63;;
78224;SDS011;67498;53.650;10.090;2023-04-28T14:02:44;5.43;;;1.60;;
78224;SDS011;67498;53.650;10.090;2023-04-28T14:05:09;3.47;;;0.98;;
78224;SDS011;67498;53.650;10.090;2023-04-28T14:07:35;4.72;;;1.33;;
78224;SDS011;67498;53.650;10.090;2023-04-28T14:10:01;3.80;;;0.97;;
78224;SDS011;67498;53.650;10.090;2023-04-28T14:12:27;9.48;;;1.15;;
78224;SDS011;67498;53.650;10.090;2023-04-28T14:14:53;9.70;;;1.40;;
78224;SDS011;67498;53.650;10.090;2023-04-28T14:17:18;4.18;;;1.30;;
78224;SDS011;67498;53.650;10.090;2023-04-28T14:19:43;5.00;;;1.50;;
78224;SDS011;67498;53.650;10.090;2023-04-28T14:22:08;5.72;;;1.50;;
78224;SDS011;67498;53.650;10.090;2023-04-28T14:24:33;4.50;;;1.25;;
78224;SDS011;67498;53.650;10.090;2023-04-28T14:26:58;7.97;;;1.37;;
78224;SDS011;67498;53.650;10.090;2023-04-28T14:29:24;6.27;;;1.40;;
78224;SDS011;67498;53.650;10.090;2023-04-28T14:31:49;4.10;;;1.50;;
78224;SDS011;67498;53.650;10.090;2023-04-28T14:34:14;4.07;;;1.30;;
78224;SDS011;67498;53.650;10.090;2023-04-28T14:36:39;6.75;;;1.20;;
78224;SDS011;67498;53.650;10.090;2023-04-28T14:39:06;3.78;;;0.98;;
78224;SDS011;67498;53.650;10.090;2023-04-28T14:41:31;7.03;;;1.30;;
78224;SDS011;67498;53.650;10.090;2023-04-28T14:43:56;4.27;;;1.30;;
78224;SDS011;67498;53.650;10.090;2023-04-28T14:46:21;7.13;;;1.73;;
78224;SDS011;67498;53.650;10.090;2023-04-28T14:48:50;4.37;;;1.17;;
78224;SDS011;67498;53.650;10.090;2023-04-28T14:51:16;6.03;;;1.60;;
78224;SDS011;67498;53.650;10.090;2023-04-28T14:53:41;4.50;;;1.50;;